This is the latest recevied weather packets stored in our database for station/object FW1079. If no packets are shown the sender has not sent any weather packets the latest 10 day(s).
| Time | Temp. | Humidity | Pressure | Rain* | Wind** | Luminosity | Snow |
|---|---|---|---|---|---|---|---|
| 1777706958 | 16.11° C | 49% | 1026.1 hPa | 0 mm | - | - | - |
| 1777704558 | 13.33° C | 58% | 1026.1 hPa | 0 mm | - | - | - |
| 1777699457 | 8.33° C | 71% | 1026.1 hPa | 0 mm | - | - | - |
| 1777697657 | 7.22° C | 71% | 1026.1 hPa | 0 mm | - | - | - |
| 1777696457 | 6.67° C | 71% | 1026.1 hPa | 0 mm | - | - | - |
| 1777695257 | 6.67° C | 70% | 1026.1 hPa | 0 mm | - | - | - |
| 1777692257 | 7.22° C | 67% | 1026.1 hPa | 0 mm | - | - | - |
| 1777691057 | 6.67° C | 67% | 1026.1 hPa | 0 mm | - | - | - |
| 1777688061 | 6.67° C | 65% | 1026.1 hPa | 0 mm | - | - | - |
| 1777686857 | 6.67° C | 65% | 1026.1 hPa | 0 mm | - | - | - |
| 1777685657 | 6.67° C | 64% | 1026.1 hPa | 0 mm | - | - | - |
| 1777685057 | 6.67° C | 64% | 1026.1 hPa | 0 mm | - | - | - |
| 1777684757 | 6.67° C | 64% | 1026.1 hPa | 0 mm | - | - | - |
| 1777684457 | 6.67° C | 63% | 1026.1 hPa | 0 mm | - | - | - |
| 1777683857 | 7.22° C | 62% | 1026.1 hPa | 0 mm | - | - | - |
| 1777682361 | 7.22° C | 63% | 1026.1 hPa | 0 mm | - | - | - |
| 1777681757 | 6.67° C | 64% | 1026.1 hPa | 0 mm | - | - | - |
| 1777680560 | 6.67° C | 63% | 1026.1 hPa | 0 mm | - | - | - |
| 1777680257 | 6.67° C | 63% | 1026.1 hPa | 0 mm | - | - | - |
| 1777675457 | 7.78° C | 59% | 1026.1 hPa | 0 mm | - | - | - |
| 1777675157 | 8.33° C | 58% | 1026.1 hPa | 0 mm | - | - | - |
| 1777673959 | 8.33° C | 57% | 1026.1 hPa | 0 mm | - | - | - |
| 1777673660 | 8.33° C | 58% | 1026.1 hPa | 0 mm | - | - | - |
| 1777672457 | 9.44° C | 53% | 1026.1 hPa | 0 mm | - | - | - |
| 1777671857 | 10.56° C | 49% | 1026.1 hPa | 0 mm | - | - | - |
* Rain latest hour (hover to see other rain measurements)
** Current wind speed in m/s (hover to see current wind gust speed)